Airfield :
LOGIN :

Register | Disclaimer

   EN    FR    IT 

 










Legend :    VFR   Marginal VFR   IFR   Intensive IFR   Very Intensive IFR
Visi :
Ceiling :
>= 8 km
>= 3000ft
5 to 8 km
1000 to 3000 ft
1500m to 5 km
500 to 1000 ft
800 to 1500m
200 to 500 ft
< 800m
< 200 ft
Symbols :   Thunderstorms  Fog  Heavy snow  Heavy precipitations  Wind > 20 kt
SIGMETs :     Misc.  Thunderstorms  Icing  Turbulence  Mountain Waves  Volcanic Ashes







- Airport Elevation : 29 ft
- IATA code : SVG


ENZV - Sola

CURRENT METAR :
  • 191620Z 27004KT 9999 FEW008 SCT015 BKN039 12/11 Q1011 TEMPO 4000 DZRA BKN006

EXPIRED METARs :
  • 191550Z 27005KT 9999 FEW009 SCT015 BKN038 13/11 Q1011 TEMPO 4000 DZRA BKN006
  • 191520Z 28005KT 9999 FEW009 BKN047 12/11 Q1011 TEMPO 4000 DZRA BKN006
  • 191450Z 29006KT 9999 FEW011 SCT017 BKN040 13/11 Q1011 TEMPO 4000 DZRA BKN006
  • 191420Z 29005KT 9999 FEW011 SCT015 BKN030 13/11 Q1012 TEMPO 4000 DZRA BKN006
  • 191350Z 30004KT 9999 FEW011 SCT018 BKN030 13/11 Q1012 TEMPO 4000 DZRA BKN006

TAF TAF ENZV
Valid from the 19 at 12:00 until the 20 at 12:00 UTC


1912/2012 VRB05KT 9999 SCT008 BKN020
TEMPO 1912/2012 3000 RADZ BR BKN007
BECMG 2001/2003 16010KT
No reported NOTAMs for that airfield.



MET'MAP, your aeronautical weather chart ! - Copyright ORBIFLY December 2007 - Disclaimer

ORBIFLY MET'MAP TEAM :

Programming & Development : Alexandra Zaïnal
Concept & Development : Baudouin d'Aumeries
Co-Development & Prog : Marc-Olivier Méhu
Technical & hardware support : Manuel Goepfert

Contact : metmap@orbifly.com




SOURCES & CREDITS :

   NOAA